Time;durP1;ratioP1;P1;durP2;ratioP2;P2;SDS_P1;SDS_P2;PMS_P1;PMS_P2;Temp;Humidity;BMP_temperature;BMP_pressure;BME280_temperature;BME280_humidity;BME280_pressure;Samples;Min_cycle;Max_cycle;Signal;HPM_P1;HPM_P2
2023/02/24 00:01:24;;;;;;;31.30;21.93;;;11.90;99.90;;;;;;5007418;28;20478;-69
2023/02/24 00:03:51;;;;;;;32.87;22.70;;;11.90;99.90;;;;;;5007318;28;20752;-68
2023/02/24 00:06:17;;;;;;;30.73;23.07;;;11.90;99.90;;;;;;5006155;28;20875;-71
2023/02/24 00:08:43;;;;;;;27.60;21.90;;;11.90;99.90;;;;;;5007372;28;20420;-69
2023/02/24 00:11:14;;;;;;;28.03;21.10;;;12.00;99.90;;;;;;4988921;28;20918;-67
2023/02/24 00:13:40;;;;;;;30.33;23.20;;;11.90;99.90;;;;;;5007061;28;20195;-68
2023/02/24 00:16:06;;;;;;;27.90;21.47;;;11.80;99.90;;;;;;5007535;28;20438;-71
2023/02/24 00:18:32;;;;;;;29.10;21.87;;;11.70;99.90;;;;;;5007265;28;20415;-72
2023/02/24 00:21:04;;;;;;;26.73;21.67;;;11.70;99.90;;;;;;5006999;28;20422;-68
2023/02/24 00:23:30;;;;;;;28.80;20.57;;;11.80;99.90;;;;;;5006926;28;20650;-68
2023/02/24 00:25:59;;;;;;;27.43;19.80;;;11.80;99.90;;;;;;4989365;28;20423;-70
2023/02/24 00:28:27;;;;;;;27.87;21.80;;;11.90;99.90;;;;;;5007004;28;20586;-68
2023/02/24 00:30:54;;;;;;;26.70;20.87;;;11.90;99.90;;;;;;5006797;28;20410;-70
2023/02/24 00:33:22;;;;;;;28.40;22.57;;;11.90;99.90;;;;;;5006337;28;20807;-67
2023/02/24 00:35:48;;;;;;;25.00;20.83;;;11.90;99.90;;;;;;5005400;28;20428;-70
2023/02/24 00:38:14;;;;;;;27.77;22.03;;;11.90;99.90;;;;;;5006763;28;20445;-69
2023/02/24 00:40:44;;;;;;;26.70;21.63;;;12.00;99.90;;;;;;5006416;28;20187;-68
2023/02/24 00:43:12;;;;;;;27.63;20.17;;;11.90;99.90;;;;;;5006646;28;20914;-68
2023/02/24 00:45:38;;;;;;;28.97;22.63;;;11.90;99.90;;;;;;5007025;28;20419;-69
2023/02/24 00:48:09;;;;;;;31.57;24.07;;;12.00;99.90;;;;;;5006568;28;20456;-70
2023/02/24 00:50:37;;;;;;;34.50;24.40;;;12.10;99.90;;;;;;5006502;28;20180;-70
2023/02/24 00:53:03;;;;;;;32.70;25.93;;;12.10;99.90;;;;;;5005431;28;20538;-70
2023/02/24 00:55:35;;;;;;;27.13;23.53;;;12.00;99.90;;;;;;5006241;28;21006;-68
2023/02/24 00:58:02;;;;;;;32.40;24.10;;;11.80;99.90;;;;;;5006187;28;20218;-69
2023/02/24 01:00:29;;;;;;;30.30;24.13;;;11.80;99.90;;;;;;5006197;28;20410;-69
2023/02/24 01:02:58;;;;;;;25.37;21.50;;;11.70;99.90;;;;;;5006124;28;20803;-73
2023/02/24 01:05:26;;;;;;;28.00;23.03;;;11.60;99.90;;;;;;5005459;28;20917;-71
2023/02/24 01:07:52;;;;;;;30.90;23.13;;;11.50;99.90;;;;;;5005569;28;20912;-70
2023/02/24 01:10:19;;;;;;;31.43;24.20;;;11.50;99.90;;;;;;5005763;28;20420;-71
2023/02/24 01:12:52;;;;;;;29.70;23.83;;;11.50;99.90;;;;;;5005564;28;20687;-74
2023/02/24 01:15:20;;;;;;;29.40;23.53;;;11.60;99.90;;;;;;5006111;28;20411;-72
2023/02/24 01:17:46;;;;;;;27.20;23.13;;;11.40;99.90;;;;;;5005225;28;20427;-71
2023/02/24 01:20:16;;;;;;;29.80;26.60;;;11.40;99.90;;;;;;5005085;28;20416;-73
2023/02/24 01:22:52;;;;;;;30.00;23.60;;;11.30;99.90;;;;;;5005344;28;20448;-73
2023/02/24 01:25:19;;;;;;;31.77;26.63;;;11.20;99.90;;;;;;5005851;28;20414;-69
2023/02/24 01:27:45;;;;;;;29.83;24.80;;;11.40;99.90;;;;;;5005171;28;20485;-70
2023/02/24 01:30:14;;;;;;;30.57;23.80;;;11.40;99.90;;;;;;5005578;28;20500;-70
2023/02/24 01:32:41;;;;;;;31.53;24.13;;;11.30;99.90;;;;;;5023797;22;20296;-72
2023/02/24 01:35:07;;;;;;;29.57;23.23;;;11.30;99.90;;;;;;4985877;28;20831;-70
2023/02/24 01:37:33;;;;;;;30.93;24.80;;;11.30;99.90;;;;;;4968545;28;20412;-69
2023/02/24 01:40:03;;;;;;;32.03;27.37;;;11.20;99.90;;;;;;4968848;28;20420;-70
2023/02/24 01:42:29;;;;;;;30.30;24.47;;;11.30;99.90;;;;;;4986599;28;20213;-70
2023/02/24 01:45:12;;;;;;;38.50;29.67;;;11.30;99.90;;;;;;4985755;28;20419;-71
2023/02/24 01:47:38;;;;;;;34.23;25.67;;;11.30;99.90;;;;;;4985309;28;20202;-69
2023/02/24 01:50:04;;;;;;;25.37;22.10;;;11.30;99.90;;;;;;4985487;28;20834;-68
2023/02/24 01:52:33;;;;;;;31.90;26.40;;;11.30;99.90;;;;;;4985916;28;20511;-70
2023/02/24 01:55:04;;;;;;;27.37;22.53;;;11.30;99.90;;;;;;4986031;28;20426;-71
2023/02/24 01:57:34;;;;;;;24.87;21.87;;;11.20;99.90;;;;;;4968470;28;20445;-70
2023/02/24 02:00:29;;;;;;;26.23;22.90;;;11.10;99.90;;;;;;4985821;28;20451;-71
2023/02/24 02:02:50;;;;;;;28.53;23.97;;;11.10;99.90;;;;;;4985351;28;20954;-70
2023/02/24 02:05:17;;;;;;;26.40;23.60;;;11.10;99.90;;;;;;4985569;28;21048;-72
2023/02/24 02:07:43;;;;;;;28.70;23.30;;;11.30;99.90;;;;;;4967535;28;20467;-72
2023/02/24 02:10:12;;;;;;;28.33;22.33;;;11.20;99.90;;;;;;4985533;28;20527;-70
2023/02/24 02:12:42;;;;;;;26.00;22.40;;;11.10;99.90;;;;;;4984020;28;20439;-71
2023/02/24 02:15:14;;;;;;;24.03;21.40;;;11.00;99.90;;;;;;4985634;28;20405;-70
2023/02/24 02:17:50;;;;;;;29.43;23.00;;;11.10;99.90;;;;;;4984631;28;20779;-71
2023/02/24 02:20:22;;;;;;;32.27;25.47;;;11.10;99.90;;;;;;4967190;28;20416;-70
2023/02/24 02:23:11;;;;;;;27.57;24.53;;;11.10;99.90;;;;;;4985231;28;20526;-70
2023/02/24 02:26:09;;;;;;;32.40;24.70;;;11.10;99.90;;;;;;4985331;28;20419;-71
2023/02/24 02:29:12;;;;;;;28.60;22.87;;;11.20;99.90;;;;;;4985148;28;20962;-70
2023/02/24 02:31:55;;;;;;;26.47;23.60;;;11.00;99.90;;;;;;4985087;28;20460;-68
2023/02/24 02:34:56;;;;;;;30.17;24.13;;;11.00;99.90;;;;;;4984707;28;20833;-70
2023/02/24 02:37:36;;;;;;;28.47;22.53;;;11.00;99.90;;;;;;4985045;28;20471;-70
2023/02/24 02:40:24;;;;;;;24.00;20.70;;;10.90;99.90;;;;;;4985062;28;20484;-70
2023/02/24 02:43:30;;;;;;;28.67;21.70;;;10.70;99.90;;;;;;4972150;28;20453;-70
2023/02/24 02:46:13;;;;;;;31.60;26.20;;;10.60;99.90;;;;;;4887592;29;20450;-70
2023/02/24 02:48:42;;;;;;;25.63;21.83;;;10.80;99.90;;;;;;4979095;28;20475;-71
2023/02/24 02:51:11;;;;;;;25.63;21.40;;;11.10;99.90;;;;;;4984449;28;20408;-71
2023/02/24 02:54:03;;;;;;;22.73;19.97;;;11.10;99.90;;;;;;4984991;28;20433;-70
2023/02/24 02:56:47;;;;;;;25.17;22.10;;;11.10;99.90;;;;;;4984418;28;20499;-70
2023/02/24 02:59:21;;;;;;;26.17;21.43;;;11.20;99.90;;;;;;4984996;28;20444;-70
2023/02/24 03:01:49;;;;;;;26.70;21.63;;;11.30;99.90;;;;;;4984666;28;20439;-71
2023/02/24 03:04:21;;;;;;;25.63;21.53;;;11.50;99.90;;;;;;4984577;28;20436;-71
2023/02/24 03:06:52;;;;;;;26.67;22.10;;;11.60;99.90;;;;;;4984207;28;20451;-69
2023/02/24 03:09:25;;;;;;;25.00;21.50;;;11.70;99.90;;;;;;4984494;28;20727;-69
2023/02/24 03:11:58;;;;;;;32.03;22.07;;;11.80;99.90;;;;;;4983033;28;20418;-70
2023/02/24 03:14:27;;;;;;;28.30;23.70;;;11.80;99.90;;;;;;4976537;28;20447;-70
2023/02/24 03:16:55;;;;;;;27.37;23.90;;;11.70;99.90;;;;;;4984250;28;20414;-71
2023/02/24 03:19:29;;;;;;;32.70;26.87;;;11.50;99.90;;;;;;4979384;28;20431;-70
2023/02/24 03:22:20;;;;;;;30.70;25.57;;;11.30;99.90;;;;;;4983802;28;20406;-69
2023/02/24 03:24:46;;;;;;;26.33;22.50;;;11.30;99.90;;;;;;4984301;28;20451;-69
2023/02/24 03:27:31;;;;;;;31.47;25.70;;;11.30;99.90;;;;;;4983941;28;20954;-71
2023/02/24 03:30:06;;;;;;;27.60;24.13;;;11.30;99.90;;;;;;4984097;28;20271;-69
2023/02/24 03:32:50;;;;;;;31.40;25.03;;;11.50;99.90;;;;;;4984094;28;20830;-71
2023/02/24 03:35:26;;;;;;;31.03;24.40;;;11.50;99.90;;;;;;4983416;28;20404;-70
2023/02/24 03:37:54;;;;;;;38.13;29.73;;;11.30;99.90;;;;;;4983943;28;20423;-69
2023/02/24 03:40:21;;;;;;;35.43;27.77;;;11.20;99.90;;;;;;4984239;28;20432;-69
2023/02/24 03:42:51;;;;;;;32.90;24.10;;;11.40;99.90;;;;;;4983392;28;20814;-69
2023/02/24 03:45:17;;;;;;;30.00;25.50;;;11.60;99.90;;;;;;4983968;28;21001;-70
2023/02/24 03:47:46;;;;;;;29.77;24.73;;;11.70;99.90;;;;;;4983921;28;20498;-71
2023/02/24 03:50:20;;;;;;;29.27;23.53;;;11.70;99.90;;;;;;4983605;28;20412;-71
2023/02/24 03:53:08;;;;;;;35.07;26.70;;;11.70;99.90;;;;;;4983589;28;20441;-71
2023/02/24 03:55:57;;;;;;;30.17;24.43;;;11.60;99.90;;;;;;4983756;28;20445;-70
2023/02/24 03:58:41;;;;;;;38.30;29.43;;;11.40;99.90;;;;;;4983769;28;20824;-71
2023/02/24 04:01:24;;;;;;;30.70;25.27;;;11.10;99.90;;;;;;4984176;28;20903;-70
2023/02/24 04:03:59;;;;;;;34.13;26.93;;;11.00;99.90;;;;;;4983759;28;20440;-69
2023/02/24 04:07:01;;;;;;;30.37;25.00;;;11.20;99.90;;;;;;4983626;28;20418;-69
2023/02/24 04:09:46;;;;;;;32.90;26.40;;;10.90;99.90;;;;;;4983808;28;20496;-69
2023/02/24 04:12:22;;;;;;;31.80;24.33;;;10.90;99.90;;;;;;4983730;28;20411;-68
2023/02/24 04:15:07;;;;;;;37.07;28.27;;;11.00;99.90;;;;;;4984095;28;20411;-72
2023/02/24 04:17:47;;;;;;;42.13;31.03;;;10.70;99.90;;;;;;4972233;28;20941;-69
2023/02/24 04:20:17;;;;;;;30.90;25.20;;;10.70;99.90;;;;;;4967238;28;21234;-68
2023/02/24 04:22:48;;;;;;;40.27;30.00;;;10.80;99.90;;;;;;4983420;28;20495;-68
2023/02/24 04:25:16;;;;;;;35.13;25.07;;;10.70;99.90;;;;;;4983177;28;20431;-69
2023/02/24 04:27:44;;;;;;;32.37;25.87;;;10.80;99.90;;;;;;4974492;28;20466;-70
2023/02/24 04:30:11;;;;;;;36.93;29.33;;;10.80;99.90;;;;;;4984134;28;20475;-70
2023/02/24 04:32:37;;;;;;;43.20;32.10;;;10.60;99.90;;;;;;4983979;28;20981;-70
2023/02/24 04:35:08;;;;;;;46.93;33.00;;;10.60;99.90;;;;;;4984153;28;20424;-70
2023/02/24 04:37:35;;;;;;;37.10;30.10;;;10.60;99.90;;;;;;4983348;28;20225;-69
2023/02/24 04:40:08;;;;;;;43.20;32.80;;;10.70;99.90;;;;;;4983636;28;20480;-71
2023/02/24 04:42:34;;;;;;;39.50;28.63;;;10.70;99.90;;;;;;4979194;28;21020;-68
2023/02/24 04:45:00;;;;;;;43.87;32.80;;;10.70;99.90;;;;;;4987407;28;20518;-71
2023/02/24 04:47:27;;;;;;;36.40;29.33;;;10.70;99.90;;;;;;4987120;28;20648;-69
2023/02/24 04:49:53;;;;;;;47.17;33.83;;;10.60;99.90;;;;;;4987059;28;20179;-71
2023/02/24 04:52:20;;;;;;;48.30;33.57;;;10.40;99.90;;;;;;4986518;28;20435;-70
2023/02/24 04:54:46;;;;;;;50.63;35.67;;;10.40;99.90;;;;;;4986805;28;21219;-71
2023/02/24 04:57:13;;;;;;;51.07;35.17;;;10.50;99.90;;;;;;4986700;28;20490;-71
2023/02/24 04:59:39;;;;;;;48.03;33.27;;;10.60;99.90;;;;;;4986877;28;20498;-70
2023/02/24 05:02:05;;;;;;;43.60;31.87;;;10.70;99.90;;;;;;4986739;28;20419;-71
2023/02/24 05:04:37;;;;;;;47.30;33.03;;;10.60;99.90;;;;;;4986599;28;20910;-69
2023/02/24 05:07:03;;;;;;;48.70;33.70;;;10.60;99.90;;;;;;4986521;28;20217;-70
2023/02/24 05:09:29;;;;;;;45.50;31.00;;;10.60;99.90;;;;;;4986622;28;20462;-70
2023/02/24 05:11:56;;;;;;;46.70;33.43;;;10.60;99.90;;;;;;4986497;28;20207;-71
2023/02/24 05:14:23;;;;;;;46.00;30.87;;;10.60;99.90;;;;;;4986597;28;20200;-70
2023/02/24 05:16:49;;;;;;;51.27;34.23;;;10.60;99.90;;;;;;4986361;28;20447;-69
2023/02/24 05:22:02;;;;;;;50.80;33.23;;;10.50;99.90;;;;;;4986428;28;20402;-70
2023/02/24 05:24:29;;;;;;;54.77;34.63;;;10.50;99.90;;;;;;4986342;28;20866;-69
2023/02/24 05:26:59;;;;;;;43.33;31.03;;;10.60;99.90;;;;;;4986642;28;20491;-70
2023/02/24 05:29:32;;;;;;;39.50;28.30;;;10.70;99.90;;;;;;4975903;28;20411;-72
2023/02/24 05:31:58;;;;;;;42.17;31.00;;;10.50;99.90;;;;;;4986305;28;20586;-70
2023/02/24 05:34:25;;;;;;;42.80;29.83;;;10.60;99.90;;;;;;4986091;28;20452;-70
2023/02/24 05:36:52;;;;;;;50.30;33.37;;;10.80;99.90;;;;;;4984432;28;20414;-70
2023/02/24 05:39:18;;;;;;;43.67;29.70;;;10.90;99.90;;;;;;4986058;28;20588;-70
2023/02/24 05:41:47;;;;;;;57.90;35.17;;;10.90;99.90;;;;;;4985829;28;20511;-72
2023/02/24 05:44:21;;;;;;;48.30;34.87;;;11.00;99.90;;;;;;4985183;28;20505;-70
2023/02/24 05:46:48;;;;;;;49.73;30.60;;;10.90;99.90;;;;;;4985886;28;20973;-69
2023/02/24 05:49:22;;;;;;;47.43;31.70;;;10.80;99.90;;;;;;4985872;28;20416;-69
2023/02/24 05:51:55;;;;;;;49.87;33.83;;;10.60;99.90;;;;;;4984773;28;21371;-70
2023/02/24 05:54:31;;;;;;;52.00;33.93;;;10.80;99.90;;;;;;4985171;28;20442;-70
2023/02/24 05:57:01;;;;;;;45.33;30.20;;;10.80;99.90;;;;;;4985800;28;20943;-69
2023/02/24 05:59:31;;;;;;;46.03;32.07;;;11.00;99.90;;;;;;4984679;28;20427;-70
2023/02/24 06:01:59;;;;;;;41.67;29.63;;;11.20;99.90;;;;;;4984141;28;20438;-70
2023/02/24 06:07:23;;;;;;;47.20;32.63;;;11.10;99.90;;;;;;4985343;28;20451;-72
2023/02/24 06:09:55;;;;;;;49.43;32.90;;;11.10;99.90;;;;;;4967997;28;20915;-72
2023/02/24 06:12:32;;;;;;;52.23;33.23;;;11.10;99.90;;;;;;4984113;28;20440;-70
2023/02/24 06:14:58;;;;;;;51.03;33.63;;;11.00;99.90;;;;;;4984786;28;20408;-70
2023/02/24 06:17:24;;;;;;;49.63;31.23;;;11.00;99.90;;;;;;4980248;28;20420;-71
2023/02/24 06:19:51;;;;;;;50.30;32.20;;;10.70;99.90;;;;;;4984184;28;20877;-70
2023/02/24 06:22:20;;;;;;;46.83;32.73;;;10.40;99.90;;;;;;4984518;28;20449;-69
2023/02/24 06:24:48;;;;;;;56.90;34.37;;;10.40;99.90;;;;;;4985083;28;20437;-69
2023/02/24 06:27:17;;;;;;;56.10;35.17;;;10.70;99.90;;;;;;4985183;28;20507;-70
2023/02/24 06:29:45;;;;;;;48.93;31.07;;;10.70;99.90;;;;;;4967918;28;20784;-68
2023/02/24 06:32:11;;;;;;;53.93;34.00;;;10.80;99.90;;;;;;4984921;28;20415;-69
2023/02/24 06:34:38;;;;;;;48.90;31.47;;;10.80;99.90;;;;;;4984571;28;20934;-69
2023/02/24 06:37:05;;;;;;;54.47;36.37;;;10.60;99.90;;;;;;4984757;28;20415;-70
2023/02/24 06:39:31;;;;;;;56.80;34.90;;;10.70;99.90;;;;;;4985271;28;20422;-70
2023/02/24 06:42:02;;;;;;;61.87;36.10;;;10.70;99.90;;;;;;4985019;28;20731;-70
2023/02/24 06:44:32;;;;;;;60.73;38.10;;;10.70;99.90;;;;;;4984942;28;20169;-70
2023/02/24 06:46:58;;;;;;;58.17;34.67;;;10.50;99.90;;;;;;4984666;28;20472;-70
2023/02/24 06:49:25;;;;;;;51.67;33.67;;;10.50;99.90;;;;;;4984647;28;20429;-71
2023/02/24 06:51:53;;;;;;;60.30;37.27;;;10.60;99.90;;;;;;4985034;28;20535;-70
2023/02/24 06:54:21;;;;;;;55.63;34.30;;;10.50;99.90;;;;;;4984565;28;20488;-71
2023/02/24 06:56:47;;;;;;;58.07;38.10;;;10.60;99.90;;;;;;4985147;28;20926;-72
2023/02/24 06:59:20;;;;;;;53.60;34.07;;;10.90;99.90;;;;;;4984673;28;20786;-71
2023/02/24 07:01:46;;;;;;;49.27;34.90;;;11.00;99.90;;;;;;4984713;28;21064;-72
2023/02/24 07:06:40;;;;;;;53.60;35.50;;;11.10;99.90;;;;;;4984587;28;20420;-72
2023/02/24 07:09:12;;;;;;;53.07;35.73;;;10.90;99.90;;;;;;4967020;28;20191;-73
2023/02/24 07:11:44;;;;;;;54.13;36.13;;;11.00;99.90;;;;;;4984693;28;20909;-72
2023/02/24 07:14:12;;;;;;;55.63;35.73;;;11.10;99.90;;;;;;4975666;28;20877;-70
2023/02/24 07:16:40;;;;;;;70.63;41.00;;;10.90;99.90;;;;;;4967078;28;20519;-71
2023/02/24 07:19:12;;;;;;;56.77;37.33;;;10.90;99.90;;;;;;4983775;28;20417;-71
2023/02/24 07:21:42;;;;;;;59.60;37.87;;;10.90;99.90;;;;;;4971969;28;20878;-69
2023/02/24 07:24:12;;;;;;;63.60;39.10;;;10.90;99.90;;;;;;4984235;28;20451;-71
2023/02/24 07:26:40;;;;;;;50.87;34.20;;;10.90;99.90;;;;;;4984258;28;20415;-71
2023/02/24 07:29:08;;;;;;;55.93;36.50;;;10.90;99.90;;;;;;4984128;28;20418;-71
2023/02/24 07:31:35;;;;;;;60.30;38.57;;;11.00;99.90;;;;;;4984041;28;20427;-70
2023/02/24 07:34:01;;;;;;;53.00;35.90;;;11.10;99.90;;;;;;4983711;28;20473;-70
2023/02/24 07:36:37;;;;;;;49.90;36.27;;;11.00;99.90;;;;;;4983967;28;20429;-71
2023/02/24 07:39:06;;;;;;;69.83;39.20;;;10.70;99.90;;;;;;4983974;28;20793;-70
2023/02/24 07:41:32;;;;;;;62.03;38.23;;;10.70;99.90;;;;;;4982397;28;20423;-71
2023/02/24 07:44:02;;;;;;;60.10;37.13;;;10.80;99.90;;;;;;4984101;28;20433;-71
2023/02/24 07:46:28;;;;;;;52.70;34.60;;;11.00;99.90;;;;;;4984109;28;20423;-71
2023/02/24 07:48:55;;;;;;;60.37;35.40;;;10.80;99.90;;;;;;4983489;28;20961;-71
2023/02/24 07:51:23;;;;;;;64.83;39.50;;;10.80;99.90;;;;;;4983002;28;20408;-71
2023/02/24 07:53:52;;;;;;;71.33;41.50;;;10.90;99.90;;;;;;4983918;28;20434;-71
2023/02/24 07:56:25;;;;;;;54.20;33.77;;;11.00;99.90;;;;;;4983601;28;20451;-71
2023/02/24 07:58:57;;;;;;;55.90;34.30;;;10.90;99.90;;;;;;4984003;28;20413;-69
2023/02/24 08:01:27;;;;;;;50.80;31.70;;;10.80;99.90;;;;;;4984745;28;20415;-71
2023/02/24 08:03:56;;;;;;;55.53;34.47;;;10.80;99.90;;;;;;4982648;28;20824;-71
2023/02/24 08:06:30;;;;;;;56.47;34.67;;;11.00;99.90;;;;;;4984614;28;20927;-70
2023/02/24 08:09:09;;;;;;;53.63;36.10;;;11.10;99.90;;;;;;4985177;28;20768;-72
2023/02/24 08:11:35;;;;;;;53.63;34.90;;;11.10;99.90;;;;;;4984345;28;20406;-71
2023/02/24 08:14:12;;;;;;;50.50;32.90;;;11.10;99.90;;;;;;4970007;28;20441;-71
2023/02/24 08:16:42;;;;;;;48.07;31.30;;;11.10;99.90;;;;;;4986798;28;20165;-72
2023/02/24 08:19:12;;;;;;;53.57;34.70;;;11.30;99.90;;;;;;4988016;28;20408;-70
2023/02/24 08:21:46;;;;;;;59.70;35.20;;;11.30;99.90;;;;;;4986841;28;20404;-70
2023/02/24 08:24:16;;;;;;;53.77;34.30;;;11.40;99.90;;;;;;4987414;28;20770;-69
2023/02/24 08:27:03;;;;;;;49.43;31.90;;;11.60;99.90;;;;;;4987908;28;20409;-70
2023/02/24 08:29:39;;;;;;;44.73;29.90;;;11.60;99.90;;;;;;4986090;28;20431;-70
2023/02/24 08:32:10;;;;;;;50.03;31.57;;;11.70;99.90;;;;;;4987092;28;20453;-69
2023/02/24 08:34:36;;;;;;;45.87;31.30;;;11.90;99.90;;;;;;4969135;28;20431;-71
2023/02/24 08:37:02;;;;;;;47.87;31.63;;;12.00;99.90;;;;;;4986173;28;21230;-70
2023/02/24 08:39:35;;;;;;;47.10;30.23;;;11.90;99.90;;;;;;4978701;28;20993;-71
2023/02/24 08:42:01;;;;;;;47.67;34.00;;;12.20;99.90;;;;;;4986887;28;20408;-71
2023/02/24 08:44:26;;;;;;;42.80;28.97;;;12.10;99.90;;;;;;4969598;28;20427;-70
2023/02/24 08:46:55;;;;;;;39.70;27.17;;;12.00;99.90;;;;;;4986991;28;20453;-71
2023/02/24 08:49:23;;;;;;;47.40;28.93;;;12.20;99.90;;;;;;4986544;28;20239;-72
2023/02/24 08:51:51;;;;;;;37.70;28.23;;;12.20;99.90;;;;;;4986609;28;20418;-70
2023/02/24 08:54:25;;;;;;;37.80;27.10;;;12.30;99.90;;;;;;4986919;28;20497;-71
2023/02/24 08:56:56;;;;;;;32.83;25.43;;;12.70;99.90;;;;;;4986828;28;20427;-70
2023/02/24 08:59:36;;;;;;;32.63;23.70;;;12.50;99.90;;;;;;4987289;28;20485;-72
2023/02/24 09:04:51;;;;;;;28.00;21.00;;;12.70;99.90;;;;;;4986579;28;20469;-70
2023/02/24 09:07:24;;;;;;;27.07;19.30;;;12.70;99.90;;;;;;4982469;28;20678;-70
2023/02/24 09:09:55;;;;;;;27.67;20.13;;;12.70;99.90;;;;;;4985260;28;20437;-70
2023/02/24 09:12:23;;;;;;;29.67;21.53;;;12.40;99.90;;;;;;4986387;28;20449;-71
2023/02/24 09:14:54;;;;;;;29.33;19.20;;;12.40;99.90;;;;;;4986300;28;20408;-70
2023/02/24 09:17:38;;;;;;;25.47;18.43;;;12.20;99.90;;;;;;4986731;28;20969;-72
2023/02/24 09:20:54;;;;;;;29.90;20.47;;;12.40;99.90;;;;;;4986401;28;20398;-71
2023/02/24 09:23:06;;;;;;;25.60;19.67;;;12.30;99.90;;;;;;4986230;28;21056;-70
2023/02/24 09:25:48;;;;;;;25.10;19.30;;;12.40;99.90;;;;;;4986510;28;20783;-70
2023/02/24 09:28:16;;;;;;;25.03;18.23;;;12.50;99.90;;;;;;4986272;28;21035;-72
2023/02/24 09:30:54;;;;;;;25.13;17.70;;;12.70;99.90;;;;;;4986363;28;20474;-70
2023/02/24 09:33:26;;;;;;;20.53;15.20;;;12.90;99.90;;;;;;4986030;28;20545;-71
2023/02/24 09:36:08;;;;;;;20.87;15.70;;;12.70;99.90;;;;;;4985820;28;21057;-71
2023/02/24 09:44:37;;;;;;;34.87;21.23;;;12.30;99.90;;;;;;4985687;28;21122;-69
2023/02/24 09:47:38;;;;;;;39.80;26.43;;;12.30;99.90;;;;;;4985634;28;20613;-69
2023/02/24 09:50:22;;;;;;;35.17;23.57;;;12.10;99.90;;;;;;4985413;28;20418;-72
2023/02/24 09:52:50;;;;;;;31.87;22.80;;;12.00;99.90;;;;;;4985576;28;20473;-72
2023/02/24 09:55:44;;;;;;;37.90;24.70;;;12.00;99.90;;;;;;4969941;28;20426;-69
2023/02/24 09:58:22;;;;;;;33.00;23.20;;;12.50;99.90;;;;;;4985965;28;20411;-71
2023/02/24 10:01:21;;;;;;;31.20;21.30;;;12.40;99.90;;;;;;4985923;28;20414;-70
2023/02/24 10:04:17;;;;;;;28.87;20.17;;;12.40;99.90;;;;;;4986219;28;20460;-70
2023/02/24 10:06:58;;;;;;;22.40;16.13;;;12.30;99.90;;;;;;4974309;28;20427;-72
2023/02/24 10:10:19;;;;;;;23.53;17.33;;;12.30;99.90;;;;;;4968285;28;20476;-73
2023/02/24 10:13:01;;;;;;;21.87;14.23;;;12.20;99.90;;;;;;4978668;28;20463;-70
2023/02/24 10:15:57;;;;;;;22.90;14.20;;;12.40;99.90;;;;;;4985948;28;20413;-70
2023/02/24 10:18:47;;;;;;;21.47;13.07;;;12.60;99.90;;;;;;4985639;28;20423;-71
2023/02/24 10:21:59;;;;;;;22.83;15.40;;;12.50;99.90;;;;;;4967814;28;20413;-70
2023/02/24 10:24:46;;;;;;;29.50;18.27;;;12.60;99.90;;;;;;4985327;28;20438;-72
2023/02/24 10:27:35;;;;;;;35.23;20.73;;;12.50;99.90;;;;;;4985941;28;20834;-69
2023/02/24 10:30:18;;;;;;;29.23;20.37;;;12.30;99.90;;;;;;4986726;28;20532;-73
2023/02/24 10:32:59;;;;;;;26.77;17.63;;;12.00;99.90;;;;;;4979028;28;20499;-71
2023/02/24 10:35:32;;;;;;;25.97;17.93;;;11.90;99.90;;;;;;4985128;28;20403;-71
2023/02/24 10:38:04;;;;;;;24.70;17.67;;;11.80;99.90;;;;;;4984922;28;20463;-70
2023/02/24 10:40:55;;;;;;;24.73;16.60;;;11.90;99.90;;;;;;4972374;28;21059;-70
2023/02/24 10:43:18;;;;;;;26.50;17.60;;;11.80;99.90;;;;;;4985895;28;20444;-69
2023/02/24 10:45:46;;;;;;;25.00;16.30;;;11.80;99.90;;;;;;4984989;28;20423;-70
2023/02/24 10:48:23;;;;;;;25.90;14.73;;;11.90;99.90;;;;;;4984978;28;20466;-70
2023/02/24 10:50:53;;;;;;;29.17;18.90;;;11.90;99.90;;;;;;4977626;28;20429;-70
2023/02/24 10:53:33;;;;;;;22.90;16.80;;;11.90;99.90;;;;;;4984930;28;20501;-72
2023/02/24 10:56:25;;;;;;;24.77;17.40;;;11.90;99.90;;;;;;4985169;28;20409;-70
2023/02/24 11:02:28;;;;;;;22.60;15.33;;;12.00;99.90;;;;;;4985718;28;20519;-69
2023/02/24 11:07:24;;;;;;;27.87;17.90;;;12.20;99.90;;;;;;4984702;28;20880;-71
2023/02/24 11:10:24;;;;;;;35.33;21.97;;;12.10;99.90;;;;;;4967178;28;20413;-70
2023/02/24 11:18:34;;;;;;;38.53;23.53;;;12.10;99.90;;;;;;4985002;28;20403;-70
2023/02/24 11:21:02;;;;;;;39.30;21.80;;;12.30;99.90;;;;;;4984530;28;20437;-73
2023/02/24 11:23:39;;;;;;;41.43;25.00;;;12.40;99.90;;;;;;4984467;28;20446;-70
2023/02/24 11:26:15;;;;;;;37.70;23.70;;;12.40;99.90;;;;;;4966836;28;20957;-71
2023/02/24 11:29:18;;;;;;;34.63;23.70;;;12.40;99.90;;;;;;4985045;28;20447;-73
2023/02/24 11:31:57;;;;;;;45.87;26.97;;;12.20;99.90;;;;;;4983676;28;20434;-72
2023/02/24 11:35:04;;;;;;;38.63;23.90;;;12.10;99.90;;;;;;4984900;28;20444;-71
2023/02/24 11:37:40;;;;;;;41.93;26.27;;;12.20;99.90;;;;;;4984945;28;20403;-72
2023/02/24 11:40:17;;;;;;;48.10;27.83;;;12.20;99.90;;;;;;4984701;28;20454;-72
2023/02/24 11:42:56;;;;;;;46.57;26.00;;;12.10;99.90;;;;;;4985309;28;20457;-71
2023/02/24 11:45:32;;;;;;;46.60;26.93;;;12.00;99.90;;;;;;4973412;28;20432;-72
2023/02/24 11:48:04;;;;;;;38.30;23.87;;;11.90;99.90;;;;;;4984213;28;20498;-72
2023/02/24 11:50:35;;;;;;;39.70;23.73;;;11.90;99.90;;;;;;4984822;28;21547;-70
2023/02/24 11:53:13;;;;;;;38.77;24.07;;;11.70;99.90;;;;;;4987705;28;20463;-70
2023/02/24 11:55:45;;;;;;;40.03;24.67;;;11.70;99.90;;;;;;4970887;28;20510;-71
2023/02/24 11:58:22;;;;;;;44.03;26.80;;;11.50;99.90;;;;;;4987916;28;20449;-73
2023/02/24 12:01:08;;;;;;;36.27;24.20;;;11.60;99.90;;;;;;4988041;28;20417;-71
2023/02/24 12:03:56;;;;;;;40.03;24.03;;;11.90;99.90;;;;;;4969729;28;20695;-70
2023/02/24 12:06:42;;;;;;;40.50;23.77;;;12.00;99.90;;;;;;4957337;28;20429;-72
2023/02/24 12:09:16;;;;;;;39.13;24.27;;;12.10;99.90;;;;;;4987499;28;20430;-69
2023/02/24 12:11:46;;;;;;;33.20;20.80;;;12.50;99.90;;;;;;4987502;28;20417;-69
2023/02/24 12:14:27;;;;;;;27.13;16.80;;;12.60;99.90;;;;;;4981594;28;20599;-71
2023/02/24 12:17:16;;;;;;;32.03;18.27;;;12.60;99.90;;;;;;4987613;28;20433;-73
2023/02/24 12:20:05;;;;;;;25.83;17.40;;;12.60;99.90;;;;;;4987959;28;20497;-73
2023/02/24 12:22:45;;;;;;;30.90;16.77;;;12.90;99.90;;;;;;4987540;28;20448;-71
2023/02/24 12:25:13;;;;;;;22.37;15.77;;;13.00;99.90;;;;;;4987531;28;20414;-71
2023/02/24 12:27:56;;;;;;;20.30;14.73;;;13.10;99.90;;;;;;4987043;28;20490;-70
2023/02/24 12:30:49;;;;;;;25.47;15.67;;;13.40;99.90;;;;;;4987255;28;20775;-70
2023/02/24 12:33:48;;;;;;;27.90;16.57;;;13.20;99.90;;;;;;4986903;28;21003;-70
2023/02/24 12:36:33;;;;;;;29.70;17.00;;;13.50;99.90;;;;;;4986455;28;20945;-69
2023/02/24 12:39:06;;;;;;;21.93;13.00;;;13.50;99.90;;;;;;4986804;28;20474;-70
2023/02/24 12:41:42;;;;;;;25.20;15.03;;;14.10;99.90;;;;;;4986913;28;20786;-69
2023/02/24 12:44:25;;;;;;;24.50;14.37;;;14.10;99.90;;;;;;4986420;28;21007;-70
2023/02/24 12:47:04;;;;;;;20.77;12.87;;;15.00;99.90;;;;;;4986879;28;20410;-69
2023/02/24 12:49:49;;;;;;;20.83;11.80;;;15.10;99.90;;;;;;4986847;28;20674;-68
2023/02/24 12:52:42;;;;;;;17.07;11.00;;;15.00;99.90;;;;;;4986740;28;20927;-70
2023/02/24 12:55:22;;;;;;;16.67;10.53;;;14.40;99.90;;;;;;4986746;28;20498;-72
2023/02/24 12:58:00;;;;;;;15.90;9.93;;;14.20;99.90;;;;;;4986468;28;20541;-71
2023/02/24 13:00:36;;;;;;;24.63;10.60;;;13.90;99.90;;;;;;4986836;28;20701;-72
2023/02/24 13:03:32;;;;;;;18.80;10.07;;;13.80;99.90;;;;;;4986224;28;20437;-71
2023/02/24 13:06:32;;;;;;;17.33;10.43;;;13.80;99.90;;;;;;4991061;28;20427;-71
2023/02/24 13:09:10;;;;;;;15.93;9.07;;;13.70;99.90;;;;;;4987641;28;20549;-72
2023/02/24 13:12:00;;;;;;;24.43;10.03;;;13.50;99.90;;;;;;4984842;28;20434;-72
2023/02/24 13:14:37;;;;;;;17.20;10.40;;;13.50;99.90;;;;;;4987085;28;20440;-72
2023/02/24 13:17:16;;;;;;;23.17;11.27;;;13.50;99.90;;;;;;4987388;28;20418;-72
2023/02/24 13:19:43;;;;;;;15.13;9.77;;;13.40;99.90;;;;;;4988769;28;20414;-74
2023/02/24 13:22:12;;;;;;;20.83;9.40;;;13.80;99.90;;;;;;4974174;28;20434;-71
2023/02/24 13:24:54;;;;;;;19.53;8.63;;;13.90;99.90;;;;;;4985050;28;20458;-71
2023/02/24 13:27:34;;;;;;;17.73;8.17;;;13.80;99.90;;;;;;4985991;28;20552;-73
2023/02/24 13:30:11;;;;;;;11.30;7.70;;;13.90;99.90;;;;;;4986422;28;20396;-70
2023/02/24 13:32:39;;;;;;;14.37;8.13;;;13.70;99.90;;;;;;4974669;28;20467;-71